メインページ
METAR-TAF:

METAR-TAF

空港 :

Defiance Memorial Airport

Defiance, オハイオ州, アメリカ合衆国

緯度: 41-20-11N, 経度: 084-25-46W, 海抜: 215m

現時点の気象観測

当レポートは50分前の05:53(UTC)に作成
南/南東の風 4kt
気温 24°C
湿度 69%
気圧 1016 hPa
視程: 16.1km
晴天

METAR: KDFI 270553Z AUTO 16004KT 10SM CLR 24/18 A3001 RMK AO2 SLP156 T02390178 10300 20228 55000

時間: 02:43 (06:43 UTC)


TAF: 見つかりません

4,000以上の空港の気象観測と天気予報(METAR報とTAF報)

利用可能な観測所は地図上に黄色い丸と赤い丸で示す。

丸の上にカーソルを重ねると観測所名を参照できる。

次にクリックすると気象観測と天気予報を参照できる。

マップの切り替え:黒色「×」印の緑ボタンをクリックして拡大、「-」印の緑ボタンをクリックして縮小、緑色の三角印をクリックして隣りの地図に切り替え


METAR-TAF: